createdAt,value
2022-08-28T00:00:21.360Z,102222.38
2022-08-28T00:02:48.592Z,102220.50
2022-08-28T00:05:19.257Z,102226.66
2022-08-28T00:07:47.936Z,102221.88
2022-08-28T00:10:19.339Z,102224.84
2022-08-28T00:12:49.425Z,102225.91
2022-08-28T00:15:20.762Z,102227.00
2022-08-28T00:17:48.601Z,102229.97
2022-08-28T00:20:17.776Z,102222.50
2022-08-28T00:22:45.085Z,102225.47
2022-08-28T00:25:13.780Z,102223.06
2022-08-28T00:27:52.569Z,102234.63
2022-08-28T00:30:32.495Z,102226.88
2022-08-28T00:33:03.556Z,102237.66
2022-08-28T00:35:30.520Z,102223.75
2022-08-28T00:37:58.655Z,102232.34
2022-08-28T00:40:32.391Z,102230.50
2022-08-28T00:43:02.584Z,102230.78
2022-08-28T00:45:30.770Z,102229.47
2022-08-28T00:47:58.551Z,102225.72
2022-08-28T00:50:29.745Z,102232.16
2022-08-28T00:53:00.967Z,102228.97
2022-08-28T00:55:29.075Z,102233.81
2022-08-28T00:57:59.511Z,102230.06
2022-08-28T01:00:32.106Z,102229.53
2022-08-28T01:02:59.138Z,102227.66
2022-08-28T01:05:26.970Z,102229.53
2022-08-28T01:07:55.952Z,102224.19
2022-08-28T01:10:24.711Z,102228.22
2022-08-28T01:12:54.080Z,102231.97
2022-08-28T01:15:24.643Z,102226.63
2022-08-28T01:17:55.291Z,102233.59
2022-08-28T01:20:26.071Z,102236.53
2022-08-28T01:23:09.124Z,102228.78
2022-08-28T01:25:37.801Z,102230.94
2022-08-28T01:28:08.785Z,102237.41
2022-08-28T01:30:35.371Z,102233.91
2022-08-28T01:33:02.357Z,102235.25
2022-08-28T01:35:35.447Z,102235.25
2022-08-28T01:38:03.626Z,102236.06
2022-08-28T01:40:36.446Z,102244.91
2022-08-28T01:43:09.590Z,102238.47
2022-08-28T01:45:37.771Z,102239.03
2022-08-28T01:48:06.871Z,102242.00
2022-08-28T01:50:34.830Z,102234.50
2022-08-28T01:53:02.519Z,102240.94
2022-08-28T01:55:29.538Z,102240.94
2022-08-28T01:57:56.441Z,102229.44
2022-08-28T02:00:27.657Z,102233.19
2022-08-28T02:02:56.717Z,102237.25
2022-08-28T02:05:25.281Z,102236.44
2022-08-28T02:07:52.581Z,102242.59
2022-08-28T02:10:24.611Z,102239.91
2022-08-28T02:12:53.922Z,102235.94
2022-08-28T02:15:20.478Z,102242.06
2022-08-28T02:17:50.463Z,102253.31
2022-08-28T02:20:17.393Z,102242.59
2022-08-28T02:22:45.108Z,102242.88
2022-08-28T02:25:14.067Z,102253.06
2022-08-28T02:27:41.286Z,102253.34
2022-08-28T02:30:10.083Z,102252.81
2022-08-28T02:32:37.003Z,102252.03
2022-08-28T02:35:04.313Z,102250.19
2022-08-28T02:37:36.935Z,102251.56
2022-08-28T02:40:04.553Z,102253.72
2022-08-28T02:42:31.127Z,102253.47
2022-08-28T02:44:58.039Z,102254.03
2022-08-28T02:47:24.609Z,102253.78
2022-08-28T02:49:51.467Z,102254.84
2022-08-28T02:52:19.648Z,102250.03
2022-08-28T02:54:47.526Z,102252.97
2022-08-28T02:57:14.334Z,102250.88
2022-08-28T02:59:40.855Z,102251.16
2022-08-28T03:02:07.574Z,102257.03
2022-08-28T03:04:35.640Z,102251.97
2022-08-28T03:07:02.775Z,102255.72
2022-08-28T03:09:30.378Z,102255.72
2022-08-28T03:11:57.953Z,102258.13
2022-08-28T03:14:26.256Z,102258.13
2022-08-28T03:16:52.788Z,102267.25
2022-08-28T03:19:19.322Z,102261.06
2022-08-28T03:21:46.566Z,102257.88
2022-08-28T03:24:15.693Z,102252.00
2022-08-28T03:26:42.747Z,102255.75
2022-08-28T03:29:09.410Z,102257.91
2022-08-28T03:31:36.272Z,102257.41
2022-08-28T03:34:03.228Z,102265.97
2022-08-28T03:36:29.999Z,102259.56
2022-08-28T03:38:59.853Z,102268.41
2022-08-28T03:41:29.186Z,102269.00
2022-08-28T03:43:58.479Z,102271.13
2022-08-28T03:46:26.186Z,102270.09
2022-08-28T03:48:54.459Z,102267.16
2022-08-28T03:51:29.247Z,102270.38
2022-08-28T03:53:57.490Z,102270.13
2022-08-28T03:56:26.894Z,102276.84
2022-08-28T03:58:57.511Z,102278.16
2022-08-28T04:01:25.324Z,102276.03
2022-08-28T04:03:52.889Z,102288.09
2022-08-28T04:06:19.874Z,102279.28
2022-08-28T04:08:47.596Z,102288.13
2022-08-28T04:11:14.507Z,102287.59
2022-08-28T04:13:42.145Z,102292.13
2022-08-28T04:16:11.971Z,102289.75
2022-08-28T04:18:41.176Z,102291.63
2022-08-28T04:21:11.570Z,102291.63
2022-08-28T04:23:39.706Z,102295.66
2022-08-28T04:26:07.982Z,102292.44
2022-08-28T04:28:35.575Z,102297.25
2022-08-28T04:31:02.722Z,102308.47
2022-08-28T04:33:30.753Z,102299.94
2022-08-28T04:36:04.752Z,102303.69
2022-08-28T04:38:31.266Z,102295.13
2022-08-28T04:40:58.015Z,102295.41
2022-08-28T04:43:25.651Z,102299.97
2022-08-28T04:45:52.179Z,102302.88
2022-08-28T04:48:19.221Z,102304.78
2022-08-28T04:50:48.237Z,102310.38
2022-08-28T04:53:17.891Z,102305.59
2022-08-28T04:55:54.101Z,102307.72
2022-08-28T04:58:23.627Z,102313.06
2022-08-28T05:00:52.542Z,102311.44
2022-08-28T05:03:19.152Z,102316.81
2022-08-28T05:05:49.047Z,102319.47
2022-08-28T05:08:18.142Z,102326.69
2022-08-28T05:10:47.050Z,102324.28
2022-08-28T05:13:15.710Z,102318.16
2022-08-28T05:15:45.173Z,102326.94
2022-08-28T05:18:14.140Z,102320.56
2022-08-28T05:20:43.845Z,102328.28
2022-08-28T05:23:11.420Z,102322.69
2022-08-28T05:25:42.007Z,102329.91
2022-08-28T05:28:12.160Z,102325.34
2022-08-28T05:30:40.803Z,102326.16
2022-08-28T05:33:08.960Z,102331.22
2022-08-28T05:35:41.084Z,102327.50
2022-08-28T05:38:08.792Z,102330.97
2022-08-28T05:40:47.882Z,102337.63
2022-08-28T05:43:17.004Z,102331.78
2022-08-28T05:45:43.753Z,102341.91
2022-08-28T05:48:11.855Z,102339.50
2022-08-28T05:50:39.159Z,102339.22
2022-08-28T05:53:09.741Z,102339.47
2022-08-28T05:55:40.619Z,102348.00
2022-08-28T05:58:25.875Z,102339.94
2022-08-28T06:00:52.636Z,102340.38
2022-08-28T06:03:19.215Z,102339.25
2022-08-28T06:05:45.951Z,102347.22
2022-08-28T06:08:13.353Z,102352.22
2022-08-28T06:10:44.846Z,102349.44
2022-08-28T06:13:15.229Z,102350.13
2022-08-28T06:15:44.143Z,102341.16
2022-08-28T06:18:11.086Z,102346.69
2022-08-28T06:20:42.134Z,102343.34
2022-08-28T06:23:15.557Z,102344.28
2022-08-28T06:25:51.725Z,102350.09
2022-08-28T06:28:22.257Z,102349.19
2022-08-28T06:31:18.083Z,102351.75
2022-08-28T06:33:37.952Z,102344.38
2022-08-28T06:36:06.007Z,102351.81
2022-08-28T06:38:32.572Z,102350.31
2022-08-28T06:40:59.982Z,102351.28
2022-08-28T06:43:28.917Z,102350.13
2022-08-28T06:45:57.664Z,102353.53
2022-08-28T06:48:27.530Z,102355.06
2022-08-28T06:50:56.163Z,102360.56
2022-08-28T06:53:25.366Z,102354.78
2022-08-28T06:56:02.792Z,102352.19
2022-08-28T06:58:29.814Z,102351.16
2022-08-28T07:01:05.392Z,102341.75
2022-08-28T07:03:32.405Z,102358.22
2022-08-28T07:05:59.957Z,102355.94
2022-08-28T07:08:28.431Z,102354.34
2022-08-28T07:10:56.435Z,102358.13
2022-08-28T07:13:23.395Z,102364.59
2022-08-28T07:15:50.387Z,102358.13
2022-08-28T07:18:17.605Z,102359.22
2022-08-28T07:20:45.275Z,102360.53
2022-08-28T07:23:11.863Z,102366.09
2022-08-28T07:25:42.001Z,102366.31
2022-08-28T07:28:09.352Z,102373.78
2022-08-28T07:30:35.931Z,102375.88
2022-08-28T07:33:02.911Z,102374.81
2022-08-28T07:35:29.480Z,102370.09
2022-08-28T07:37:56.219Z,102378.38
2022-08-28T07:40:23.029Z,102382.09
2022-08-28T07:43:08.120Z,102384.69
2022-08-28T07:45:35.941Z,102382.69
2022-08-28T07:48:11.933Z,102377.22
2022-08-28T07:50:38.502Z,102377.16
2022-08-28T07:53:08.164Z,102370.88
2022-08-28T07:55:34.697Z,102372.06
2022-08-28T07:58:02.236Z,102375.47
2022-08-28T08:00:28.820Z,102371.88
2022-08-28T08:02:55.292Z,102388.13
2022-08-28T08:05:21.906Z,102385.03
2022-08-28T08:07:48.429Z,102388.72
2022-08-28T08:10:20.527Z,102394.78
2022-08-28T08:12:47.255Z,102388.00
2022-08-28T08:15:13.875Z,102396.00
2022-08-28T08:17:40.725Z,102403.66
2022-08-28T08:20:08.724Z,102394.38
2022-08-28T08:22:35.789Z,102404.72
2022-08-28T08:25:05.722Z,102398.25
2022-08-28T08:27:33.090Z,102416.19
2022-08-28T08:29:59.909Z,102400.41
2022-08-28T08:32:27.984Z,102400.59
2022-08-28T08:34:58.443Z,102400.69
2022-08-28T08:37:25.040Z,102406.00
2022-08-28T08:39:53.631Z,102401.88
2022-08-28T08:42:29.181Z,102403.47
2022-08-28T08:44:58.916Z,102403.94
2022-08-28T08:47:48.836Z,102394.47
2022-08-28T08:50:19.499Z,102389.75
2022-08-28T08:53:23.559Z,102388.81
2022-08-28T08:55:57.110Z,102387.28
2022-08-28T08:58:32.948Z,102391.34
2022-08-28T09:01:09.585Z,102386.78
2022-08-28T09:03:47.908Z,102383.66
2022-08-28T09:06:29.552Z,102379.53
2022-08-28T09:09:01.989Z,102398.31
2022-08-28T09:11:56.958Z,102401.50
2022-08-28T09:14:42.638Z,102397.06
2022-08-28T09:17:11.965Z,102395.66
2022-08-28T09:19:38.875Z,102395.19
2022-08-28T09:22:05.454Z,102405.56
2022-08-28T09:24:37.805Z,102396.41
2022-08-28T09:27:28.440Z,102392.94
2022-08-28T09:30:07.616Z,102402.53
2022-08-28T09:32:43.664Z,102403.16
2022-08-28T09:35:25.859Z,102394.59
2022-08-28T09:37:52.651Z,102401.47
2022-08-28T09:40:49.486Z,102399.41
2022-08-28T09:43:30.323Z,102389.56
2022-08-28T09:46:03.237Z,102394.19
2022-08-28T09:48:40.764Z,102395.94
2022-08-28T09:51:23.939Z,102404.19
2022-08-28T09:54:01.722Z,102402.16
2022-08-28T09:56:32.170Z,102390.22
2022-08-28T09:59:10.897Z,102394.66
2022-08-28T10:02:11.494Z,102391.81
2022-08-28T10:04:43.916Z,102402.72
2022-08-28T10:07:33.651Z,102406.50
2022-08-28T10:10:20.379Z,102399.81
2022-08-28T10:13:09.613Z,102401.34
2022-08-28T10:15:43.534Z,102395.47
2022-08-28T10:18:28.714Z,102398.03
2022-08-28T10:21:09.201Z,102395.66
2022-08-28T10:23:49.515Z,102392.19
2022-08-28T10:26:21.372Z,102387.94
2022-08-28T10:29:08.321Z,102401.47
2022-08-28T10:31:45.032Z,102392.41
2022-08-28T10:34:54.880Z,102386.59
2022-08-28T10:37:40.329Z,102389.47
2022-08-28T10:40:15.191Z,102392.34
2022-08-28T10:42:48.657Z,102398.56
2022-08-28T10:45:20.776Z,102393.47
2022-08-28T10:47:52.528Z,102399.66
2022-08-28T10:50:28.095Z,102400.00
2022-08-28T10:53:06.484Z,102396.81
2022-08-28T10:55:43.675Z,102397.75
2022-08-28T10:58:25.084Z,102401.75
2022-08-28T11:00:55.477Z,102403.31
2022-08-28T11:03:41.055Z,102393.31
2022-08-28T11:06:15.115Z,102392.19
2022-08-28T11:08:41.905Z,102388.34
2022-08-28T11:11:16.617Z,102386.59
2022-08-28T11:14:01.106Z,102394.72
2022-08-28T11:16:32.269Z,102393.28
2022-08-28T11:19:44.947Z,102383.72
2022-08-28T11:22:26.672Z,102389.88
2022-08-28T11:25:09.595Z,102392.75
2022-08-28T11:27:39.592Z,102394.97
2022-08-28T11:30:08.873Z,102402.44
2022-08-28T11:32:49.772Z,102391.00
2022-08-28T11:35:42.463Z,102398.31
2022-08-28T11:38:10.231Z,102396.09
2022-08-28T11:40:50.679Z,102386.84
2022-08-28T11:43:20.931Z,102395.59
2022-08-28T11:45:47.834Z,102390.91
2022-08-28T11:48:43.297Z,102389.81
2022-08-28T11:51:29.881Z,102399.69
2022-08-28T11:54:33.905Z,102395.59
2022-08-28T11:57:08.091Z,102393.38
2022-08-28T11:59:43.691Z,102387.78
2022-08-28T12:02:32.359Z,102384.25
2022-08-28T12:04:59.185Z,102389.16
2022-08-28T12:07:35.336Z,102396.00
2022-08-28T12:10:05.097Z,102403.38
2022-08-28T12:13:01.596Z,102396.88
2022-08-28T12:15:31.097Z,102389.38
2022-08-28T12:18:08.073Z,102403.16
2022-08-28T12:20:46.856Z,102389.34
2022-08-28T12:23:32.282Z,102407.03
2022-08-28T12:26:03.035Z,102405.59
2022-08-28T12:28:36.601Z,102397.44
2022-08-28T12:31:08.737Z,102397.06
2022-08-28T12:33:48.561Z,102394.19
2022-08-28T12:36:17.443Z,102391.47
2022-08-28T12:38:53.481Z,102388.31
2022-08-28T12:41:21.927Z,102386.06
2022-08-28T12:43:53.732Z,102384.16
2022-08-28T12:46:29.245Z,102385.53
2022-08-28T12:48:59.588Z,102384.66
2022-08-28T12:51:31.938Z,102387.69
2022-08-28T12:54:01.807Z,102384.81
2022-08-28T12:56:33.961Z,102380.19
2022-08-28T12:59:32.457Z,102376.50
2022-08-28T13:02:04.846Z,102386.38
2022-08-28T13:04:34.444Z,102378.78
2022-08-28T13:07:10.852Z,102379.03
2022-08-28T13:09:42.978Z,102378.91
2022-08-28T13:12:19.293Z,102379.31
2022-08-28T13:14:46.653Z,102373.03
2022-08-28T13:17:15.511Z,102379.53
2022-08-28T13:19:42.568Z,102362.41
2022-08-28T13:22:33.994Z,102359.13
2022-08-28T13:25:02.291Z,102369.75
2022-08-28T13:27:29.296Z,102362.63
2022-08-28T13:30:08.306Z,102360.78
2022-08-28T13:32:39.540Z,102366.19
2022-08-28T13:35:20.619Z,102363.56
2022-08-28T13:37:50.524Z,102370.94
2022-08-28T13:40:53.164Z,102361.25
2022-08-28T13:43:11.063Z,102371.47
2022-08-28T13:45:43.156Z,102370.16
2022-08-28T13:48:12.034Z,102369.31
2022-08-28T13:50:41.819Z,102371.00
2022-08-28T13:53:11.472Z,102374.13
2022-08-28T13:55:39.296Z,102370.69
2022-08-28T13:58:05.841Z,102370.00
2022-08-28T14:00:36.374Z,102364.66
2022-08-28T14:03:21.729Z,102361.16
2022-08-28T14:05:49.324Z,102363.16
2022-08-28T14:08:16.000Z,102356.94
2022-08-28T14:10:42.702Z,102362.25
2022-08-28T14:13:09.650Z,102355.69
2022-08-28T14:18:02.877Z,102360.06
2022-08-28T14:20:29.438Z,102366.06
2022-08-28T14:22:55.992Z,102365.59
2022-08-28T14:25:22.660Z,102366.72
2022-08-28T14:27:49.813Z,102369.91
2022-08-28T14:30:17.375Z,102369.16
2022-08-28T14:32:44.015Z,102364.19
2022-08-28T14:35:11.403Z,102363.41
2022-08-28T14:37:38.134Z,102367.38
2022-08-28T14:40:06.638Z,102367.84
2022-08-28T14:42:33.179Z,102358.38
2022-08-28T14:44:59.913Z,102354.03
2022-08-28T14:47:26.707Z,102351.91
2022-08-28T14:49:53.284Z,102359.59
2022-08-28T14:52:20.076Z,102364.00
2022-08-28T14:54:46.712Z,102365.38
2022-08-28T14:57:13.661Z,102363.13
2022-08-28T14:59:40.284Z,102364.69
2022-08-28T15:02:07.961Z,102367.63
2022-08-28T15:04:36.475Z,102361.16
2022-08-28T15:07:07.573Z,102362.31
2022-08-28T15:09:39.953Z,102360.31
2022-08-28T15:12:06.997Z,102359.13
2022-08-28T15:14:34.471Z,102360.59
2022-08-28T15:17:01.402Z,102366.06
2022-08-28T15:19:30.177Z,102353.38
2022-08-28T15:21:57.493Z,102354.53
2022-08-28T15:24:28.657Z,102352.16
2022-08-28T15:26:55.279Z,102361.88
2022-08-28T15:29:21.851Z,102356.59
2022-08-28T15:31:50.979Z,102347.47
2022-08-28T15:34:23.830Z,102354.94
2022-08-28T15:36:55.191Z,102355.75
2022-08-28T15:39:43.327Z,102356.34
2022-08-28T15:42:11.633Z,102352.84
2022-08-28T15:44:39.211Z,102358.59
2022-08-28T15:47:06.474Z,102349.41
2022-08-28T15:49:36.067Z,102349.00
2022-08-28T15:52:04.384Z,102339.78
2022-08-28T15:54:32.062Z,102338.84
2022-08-28T15:56:58.640Z,102339.94
2022-08-28T15:59:25.799Z,102346.50
2022-08-28T16:02:12.797Z,102340.81
2022-08-28T16:04:39.575Z,102351.34
2022-08-28T16:07:06.167Z,102351.34
2022-08-28T16:09:33.154Z,102348.47
2022-08-28T16:11:59.758Z,102341.75
2022-08-28T16:14:26.295Z,102347.19
2022-08-28T16:16:53.012Z,102345.41
2022-08-28T16:19:19.669Z,102346.41
2022-08-28T16:21:46.280Z,102339.41
2022-08-28T16:24:12.949Z,102339.06
2022-08-28T16:26:42.059Z,102355.19
2022-08-28T16:29:08.691Z,102346.59
2022-08-28T16:31:36.360Z,102352.16
2022-08-28T16:34:03.378Z,102347.53
2022-08-28T16:36:31.272Z,102346.75
2022-08-28T16:39:03.670Z,102346.94
2022-08-28T16:41:31.990Z,102348.19
2022-08-28T16:43:58.791Z,102342.13
2022-08-28T16:46:26.435Z,102360.13
2022-08-28T16:48:53.977Z,102353.75
2022-08-28T16:51:21.448Z,102348.53
2022-08-28T16:53:48.653Z,102350.59
2022-08-28T16:56:18.247Z,102352.03
2022-08-28T16:58:48.663Z,102351.25
2022-08-28T17:01:23.949Z,102343.94
2022-08-28T17:03:54.628Z,102348.91
2022-08-28T17:06:24.790Z,102349.22
2022-08-28T17:08:56.463Z,102351.28
2022-08-28T17:11:25.537Z,102354.66
2022-08-28T17:13:52.652Z,102353.41
2022-08-28T17:16:20.531Z,102350.84
2022-08-28T17:18:52.233Z,102354.50
2022-08-28T17:21:38.814Z,102348.47
2022-08-28T17:24:05.776Z,102360.06
2022-08-28T17:26:32.580Z,102356.56
2022-08-28T17:28:59.031Z,102353.69
2022-08-28T17:31:25.637Z,102361.69
2022-08-28T17:33:52.314Z,102357.06
2022-08-28T17:36:32.531Z,102356.41
2022-08-28T17:39:05.891Z,102370.06
2022-08-28T17:41:33.571Z,102362.41
2022-08-28T17:44:00.823Z,102358.94
2022-08-28T17:46:27.695Z,102360.34
2022-08-28T17:48:56.075Z,102355.25
2022-08-28T17:51:42.074Z,102364.50
2022-08-28T17:54:13.689Z,102362.25
2022-08-28T17:56:40.770Z,102364.44
2022-08-28T17:59:07.798Z,102366.66
2022-08-28T18:01:34.481Z,102368.41
2022-08-28T18:04:01.135Z,102363.16
2022-08-28T18:06:27.935Z,102356.81
2022-08-28T18:08:54.535Z,102371.56
2022-08-28T18:11:21.095Z,102360.91
2022-08-28T18:13:47.669Z,102363.44
2022-08-28T18:16:14.411Z,102359.47
2022-08-28T18:18:41.721Z,102354.97
2022-08-28T18:21:12.499Z,102354.16
2022-08-28T18:23:40.127Z,102362.56
2022-08-28T18:26:08.558Z,102353.81
2022-08-28T18:28:35.486Z,102352.50
2022-08-28T18:31:05.651Z,102363.44
2022-08-28T18:33:32.948Z,102362.00
2022-08-28T18:36:00.251Z,102361.81
2022-08-28T18:38:28.536Z,102364.94
2022-08-28T18:40:56.363Z,102370.47
2022-08-28T18:43:23.999Z,102366.34
2022-08-28T18:45:51.355Z,102368.53
2022-08-28T18:48:19.185Z,102372.63
2022-08-28T18:50:47.424Z,102370.06
2022-08-28T18:53:16.084Z,102376.41
2022-08-28T18:55:42.616Z,102379.22
2022-08-28T18:58:13.265Z,102378.72
2022-08-28T19:00:42.989Z,102388.53
2022-08-28T19:03:10.320Z,102381.34
2022-08-28T19:05:38.128Z,102392.28
2022-08-28T19:08:05.385Z,102386.69
2022-08-28T19:10:34.429Z,102388.91
2022-08-28T19:13:02.287Z,102392.50
2022-08-28T19:15:29.605Z,102396.00
2022-08-28T19:17:56.481Z,102390.31
2022-08-28T19:20:23.771Z,102400.28
2022-08-28T19:22:50.328Z,102406.88
2022-08-28T19:25:28.862Z,102403.78
2022-08-28T19:27:59.331Z,102397.72
2022-08-28T19:30:27.165Z,102405.63
2022-08-28T19:32:53.804Z,102400.81
2022-08-28T19:35:20.909Z,102407.63
2022-08-28T19:37:51.135Z,102404.72
2022-08-28T19:40:17.963Z,102410.25
2022-08-28T19:42:44.814Z,102411.44
2022-08-28T19:45:14.912Z,102413.63
2022-08-28T19:47:41.776Z,102421.50
2022-08-28T19:50:10.566Z,102410.53
2022-08-28T19:52:37.532Z,102419.22
2022-08-28T19:55:06.223Z,102418.72
2022-08-28T19:57:33.753Z,102425.53
2022-08-28T20:00:00.454Z,102432.28
2022-08-28T20:02:28.555Z,102437.78
2022-08-28T20:04:55.404Z,102435.38
2022-08-28T20:07:22.564Z,102425.41
2022-08-28T20:09:49.132Z,102430.28
2022-08-28T20:12:16.141Z,102433.09
2022-08-28T20:14:44.683Z,102434.50
2022-08-28T20:17:11.303Z,102442.56
2022-08-28T20:19:38.387Z,102440.38
2022-08-28T20:22:04.912Z,102442.56
2022-08-28T20:24:31.529Z,102441.06
2022-08-28T20:26:58.190Z,102438.66
2022-08-28T20:29:25.138Z,102445.25
2022-08-28T20:31:52.131Z,102446.13
2022-08-28T20:34:20.152Z,102444.03
2022-08-28T20:36:47.350Z,102441.94
2022-08-28T20:39:14.830Z,102448.72
2022-08-28T20:41:42.154Z,102451.91
2022-08-28T20:44:10.879Z,102449.50
2022-08-28T20:46:41.283Z,102454.59
2022-08-28T20:49:11.757Z,102449.72
2022-08-28T20:51:57.617Z,102453.72
2022-08-28T20:54:34.461Z,102462.56
2022-08-28T20:57:03.849Z,102461.00
2022-08-28T20:59:39.319Z,102463.19
2022-08-28T21:02:08.437Z,102460.78
2022-08-28T21:04:36.922Z,102463.75
2022-08-28T21:07:06.070Z,102472.13
2022-08-28T21:09:53.703Z,102472.44
2022-08-28T21:12:20.036Z,102477.56
2022-08-28T21:14:51.491Z,102482.16
2022-08-28T21:17:24.389Z,102482.44
2022-08-28T21:19:57.358Z,102483.84
2022-08-28T21:22:23.948Z,102489.22
2022-08-28T21:24:50.653Z,102486.81
2022-08-28T21:27:18.612Z,102481.44
2022-08-28T21:29:45.788Z,102486.31
2022-08-28T21:32:12.631Z,102489.81
2022-08-28T21:34:39.372Z,102490.91
2022-08-28T21:37:06.502Z,102499.88
2022-08-28T21:39:33.392Z,102494.78
2022-08-28T21:42:00.134Z,102506.31
2022-08-28T21:44:26.726Z,102500.16
2022-08-28T21:46:53.579Z,102499.88
2022-08-28T21:49:22.555Z,102503.63
2022-08-28T21:51:49.773Z,102495.56
2022-08-28T21:54:16.899Z,102495.28
2022-08-28T21:56:43.494Z,102487.22
2022-08-28T21:59:10.130Z,102484.22
2022-08-28T22:01:36.669Z,102491.19
2022-08-28T22:04:04.259Z,102486.59
2022-08-28T22:06:32.473Z,102497.69
2022-08-28T22:08:59.461Z,102498.75
2022-08-28T22:11:26.867Z,102502.56
2022-08-28T22:13:54.873Z,102496.34
2022-08-28T22:16:22.295Z,102492.88
2022-08-28T22:18:49.183Z,102502.84
2022-08-28T22:21:37.207Z,102503.41
2022-08-28T22:24:04.551Z,102495.66
2022-08-28T22:26:31.324Z,102504.00
2022-08-28T22:28:58.200Z,102500.81
2022-08-28T22:31:25.132Z,102501.38
2022-08-28T22:33:52.464Z,102503.00
2022-08-28T22:36:20.530Z,102493.91
2022-08-28T22:38:53.173Z,102500.38
2022-08-28T22:41:20.756Z,102505.56
2022-08-28T22:43:51.351Z,102495.88
2022-08-28T22:46:20.643Z,102493.47
2022-08-28T22:48:48.116Z,102502.44
2022-08-28T22:51:18.516Z,102498.81
2022-08-28T22:53:46.915Z,102489.50
2022-08-28T22:56:16.188Z,102498.16
2022-08-28T22:58:43.000Z,102495.81
2022-08-28T23:01:19.023Z,102497.28
2022-08-28T23:03:46.302Z,102493.56
2022-08-28T23:06:13.774Z,102486.38
2022-08-28T23:08:40.509Z,102493.44
2022-08-28T23:11:07.002Z,102493.47
2022-08-28T23:13:33.613Z,102490.56
2022-08-28T23:16:01.482Z,102490.56
2022-08-28T23:18:29.201Z,102484.13
2022-08-28T23:20:56.204Z,102487.69
2022-08-28T23:23:24.070Z,102485.31
2022-08-28T23:25:50.822Z,102483.97
2022-08-28T23:28:18.697Z,102479.19
2022-08-28T23:30:49.622Z,102479.75
2022-08-28T23:33:23.714Z,102477.06
2022-08-28T23:35:51.022Z,102475.47
2022-08-28T23:38:17.663Z,102475.25
2022-08-28T23:40:44.832Z,102471.78
2022-08-28T23:43:11.880Z,102471.78
2022-08-28T23:45:39.956Z,102472.06
2022-08-28T23:48:06.986Z,102477.19
2022-08-28T23:50:34.049Z,102469.22
2022-08-28T23:53:02.247Z,102467.16
2022-08-28T23:55:28.941Z,102465.88
2022-08-28T23:57:55.764Z,102471.31
